Terminal Aerodrome Forecast
Issued by NWS Wilmington, OH

Current Version | Previous Version | Text Only | Print | Product List | Glossary Off
Versions: 1 2 3 4 5 6 7 8 9 10 11 12 13 14 15 16 17

000
FTUS41 KILN 240539 AAA
TAFILN
TAF AMD
KILN 240539Z 2406/2506 18004KT P6SM SKC
     FM241300 19010KT P6SM FEW250
     FM241700 20011G18KT P6SM SCT250
     FM250500 21012KT P6SM BKN200=

USA.gov is the U.S. government's official web portal to all federal, state and local government web resources and services.